Potsdam, Ohio
Current Conditions -  °F | °C
As of 8:56 AM on Wednesday 26 Nov 2014 (Local Time) from KDAY Reporting Station
Overcast Overcast  
Wind Chill: 25°   Ceiling: 1100
Heat Index: 30°   Visibility: 8mi
Dew Point: 24°   Wind: 5mph
Humidity: 79%   Direction: 350°N
Pressure: 30.14"   Gusts: NA
Location:  39.96°N, 84.42°W
Report Text: KDAY 261356Z 35004KT 8SM OVC011 M01/M04 A3014 RMK AO2 SLP216 T10111044
Loading
Personal Weather Stations






























Interactive Weather Map New forecast layout! Learn more

10-Day Weather Forecast

Advertisements
Track Severe Weather on mobile